createdAt,value
2017-11-06T00:02:16.327Z,15.27
2017-11-06T00:04:44.695Z,18.30
2017-11-06T00:07:13.068Z,14.87
2017-11-06T00:09:41.454Z,16.77
2017-11-06T00:12:09.832Z,21.33
2017-11-06T00:14:38.206Z,17.50
2017-11-06T00:17:06.572Z,17.03
2017-11-06T00:19:34.939Z,17.70
2017-11-06T00:22:03.331Z,14.87
2017-11-06T00:24:31.699Z,15.97
2017-11-06T00:27:00.217Z,17.80
2017-11-06T00:29:28.602Z,15.47
2017-11-06T00:31:56.989Z,15.90
2017-11-06T00:34:25.359Z,16.43
2017-11-06T00:36:53.734Z,17.50
2017-11-06T00:39:22.111Z,18.87
2017-11-06T00:41:50.494Z,15.57
2017-11-06T00:44:18.891Z,18.07
2017-11-06T00:46:47.292Z,17.27
2017-11-06T00:49:16.435Z,16.40
2017-11-06T00:51:44.832Z,15.30
2017-11-06T00:54:13.205Z,14.37
2017-11-06T00:56:41.588Z,16.67
2017-11-06T00:59:09.968Z,15.30
2017-11-06T01:01:38.359Z,15.97
2017-11-06T01:04:06.733Z,13.17
2017-11-06T01:06:35.104Z,14.17
2017-11-06T01:09:03.480Z,14.87
2017-11-06T01:11:31.862Z,17.20
2017-11-06T01:14:00.239Z,14.47
2017-11-06T01:16:28.618Z,15.70
2017-11-06T01:18:56.990Z,16.83
2017-11-06T01:21:25.370Z,12.47
2017-11-06T01:23:53.748Z,17.30
2017-11-06T01:26:22.121Z,13.90
2017-11-06T01:28:50.488Z,13.73
2017-11-06T01:31:18.854Z,12.57
2017-11-06T01:33:48.009Z,17.23
2017-11-06T01:36:17.157Z,14.80
2017-11-06T01:38:45.527Z,10.47
2017-11-06T01:41:14.672Z,13.50
2017-11-06T01:43:43.043Z,11.50
2017-11-06T01:46:11.410Z,12.97
2017-11-06T01:48:39.785Z,12.43
2017-11-06T01:51:08.160Z,10.40
2017-11-06T01:53:36.530Z,10.20
2017-11-06T01:56:05.764Z,12.43
2017-11-06T01:58:34.134Z,12.70
2017-11-06T02:01:02.507Z,13.17
2017-11-06T02:03:30.877Z,12.53
2017-11-06T02:05:59.247Z,12.60
2017-11-06T02:08:27.624Z,11.03
2017-11-06T02:10:56.003Z,15.10
2017-11-06T02:13:24.370Z,9.20
2017-11-06T02:15:53.516Z,13.33
2017-11-06T02:18:21.910Z,10.53
2017-11-06T02:20:50.287Z,10.93
2017-11-06T02:23:18.654Z,12.63
2017-11-06T02:25:47.027Z,9.10
2017-11-06T02:28:15.404Z,10.30
2017-11-06T02:30:45.594Z,14.30
2017-11-06T02:33:13.967Z,14.27
2017-11-06T02:35:43.176Z,15.20
2017-11-06T02:38:11.551Z,8.63
2017-11-06T02:40:39.929Z,9.40
2017-11-06T02:43:08.304Z,12.67
2017-11-06T02:45:37.441Z,12.93
2017-11-06T02:48:05.820Z,14.87
2017-11-06T02:50:34.211Z,13.20
2017-11-06T02:53:02.592Z,12.90
2017-11-06T02:55:30.966Z,15.43
2017-11-06T02:57:59.341Z,11.23
2017-11-06T03:00:27.718Z,12.80
2017-11-06T03:02:56.095Z,11.13
2017-11-06T03:05:24.479Z,11.87
2017-11-06T03:07:52.855Z,10.20
2017-11-06T03:10:21.230Z,11.70
2017-11-06T03:12:49.614Z,11.27
2017-11-06T03:15:17.994Z,10.53
2017-11-06T03:17:46.369Z,12.63
2017-11-06T03:20:14.729Z,10.80
2017-11-06T03:22:43.103Z,13.33
2017-11-06T03:25:11.488Z,18.93
2017-11-06T03:27:39.849Z,15.10
2017-11-06T03:30:08.228Z,10.73
2017-11-06T03:32:36.613Z,14.73
2017-11-06T03:35:05.005Z,14.80
2017-11-06T03:37:33.368Z,12.13
2017-11-06T03:40:01.800Z,11.10
2017-11-06T03:42:30.168Z,15.33
2017-11-06T03:44:58.549Z,14.43
2017-11-06T03:47:26.926Z,12.10
2017-11-06T03:49:55.298Z,18.93
2017-11-06T03:52:23.668Z,9.20
2017-11-06T03:54:52.040Z,18.50
2017-11-06T03:57:20.410Z,10.90
2017-11-06T03:59:48.783Z,13.03
2017-11-06T04:02:17.154Z,13.10
2017-11-06T04:04:45.530Z,12.80
2017-11-06T04:07:14.668Z,14.47
2017-11-06T04:09:43.046Z,14.47
2017-11-06T04:12:11.423Z,13.43
2017-11-06T04:14:39.809Z,12.03
2017-11-06T04:17:08.188Z,10.07
2017-11-06T04:19:36.560Z,13.27
2017-11-06T04:22:04.951Z,10.70
2017-11-06T04:24:33.324Z,12.17
2017-11-06T04:27:01.716Z,7.77
2017-11-06T04:29:30.079Z,9.00
2017-11-06T04:31:58.455Z,13.03
2017-11-06T04:34:26.831Z,14.47
2017-11-06T04:36:55.196Z,9.40
2017-11-06T04:39:23.588Z,13.50
2017-11-06T04:41:51.972Z,14.83
2017-11-06T04:44:20.349Z,16.17
2017-11-06T04:46:48.724Z,12.20
2017-11-06T04:49:17.094Z,10.83
2017-11-06T04:51:45.464Z,16.80
2017-11-06T04:54:13.828Z,8.93
2017-11-06T04:56:42.970Z,10.20
2017-11-06T04:59:11.351Z,11.50
2017-11-06T05:01:39.735Z,10.20
2017-11-06T05:04:08.110Z,10.10
2017-11-06T05:06:36.555Z,8.17
2017-11-06T05:09:04.923Z,13.30
2017-11-06T05:11:34.067Z,11.33
2017-11-06T05:14:02.441Z,14.27
2017-11-06T05:16:30.814Z,11.03
2017-11-06T05:18:59.189Z,13.40
2017-11-06T05:21:27.570Z,16.27
2017-11-06T05:23:55.939Z,10.20
2017-11-06T05:26:24.315Z,12.63
2017-11-06T05:28:52.696Z,12.97
2017-11-06T05:31:21.075Z,11.20
2017-11-06T05:33:49.488Z,12.27
2017-11-06T05:36:17.869Z,11.73
2017-11-06T05:38:46.242Z,13.43
2017-11-06T05:41:14.617Z,10.83
2017-11-06T05:43:42.999Z,12.57
2017-11-06T05:46:11.363Z,14.13
2017-11-06T05:48:39.736Z,12.53
2017-11-06T05:51:08.107Z,11.37
2017-11-06T05:53:36.468Z,16.37
2017-11-06T05:56:05.613Z,9.53
2017-11-06T05:58:33.988Z,16.23
2017-11-06T06:01:02.370Z,11.80
2017-11-06T06:03:30.746Z,14.80
2017-11-06T06:05:59.141Z,15.10
2017-11-06T06:08:27.517Z,15.43
2017-11-06T06:10:55.891Z,11.20
2017-11-06T06:13:24.265Z,15.00
2017-11-06T06:15:52.635Z,12.57
2017-11-06T06:18:21.008Z,16.97
2017-11-06T06:20:49.385Z,12.67
2017-11-06T06:23:17.751Z,14.13
2017-11-06T06:25:46.121Z,13.23
2017-11-06T06:28:14.496Z,14.93
2017-11-06T06:30:43.628Z,14.10
2017-11-06T06:33:11.997Z,19.97
2017-11-06T06:35:40.362Z,17.13
2017-11-06T06:38:08.736Z,14.27
2017-11-06T06:40:37.116Z,13.47
2017-11-06T06:43:05.491Z,17.50
2017-11-06T06:45:34.649Z,15.60
2017-11-06T06:48:03.016Z,15.87
2017-11-06T06:50:31.408Z,15.43
2017-11-06T06:52:59.784Z,14.80
2017-11-06T06:55:28.160Z,15.90
2017-11-06T06:57:56.524Z,18.77
2017-11-06T07:00:24.903Z,12.27
2017-11-06T07:02:53.275Z,15.73
2017-11-06T07:05:21.734Z,16.13
2017-11-06T07:07:50.128Z,14.60
2017-11-06T07:10:18.506Z,14.43
2017-11-06T07:12:46.888Z,16.37
2017-11-06T07:15:15.260Z,15.70
2017-11-06T07:17:43.630Z,16.33
2017-11-06T07:20:12.009Z,12.50
2017-11-06T07:22:40.378Z,14.80
2017-11-06T07:25:09.525Z,16.57
2017-11-06T07:27:37.902Z,16.97
2017-11-06T07:30:06.283Z,14.73
2017-11-06T07:32:34.670Z,13.10
2017-11-06T07:35:03.048Z,15.63
2017-11-06T07:37:31.421Z,15.43
2017-11-06T07:39:59.805Z,21.73
2017-11-06T07:42:28.196Z,15.07
2017-11-06T07:44:58.077Z,14.17
2017-11-06T07:47:26.457Z,13.77
2017-11-06T07:49:54.836Z,14.70
2017-11-06T07:52:23.212Z,14.90
2017-11-06T07:54:51.620Z,16.00
2017-11-06T07:57:20.021Z,14.50
2017-11-06T07:59:49.186Z,13.40
2017-11-06T08:02:17.593Z,16.67
2017-11-06T08:04:46.746Z,13.73
2017-11-06T08:07:15.123Z,14.53
2017-11-06T08:09:43.487Z,12.47
2017-11-06T08:12:11.863Z,12.57
2017-11-06T08:14:40.243Z,13.30
2017-11-06T08:17:09.149Z,15.43
2017-11-06T08:19:38.042Z,17.10
2017-11-06T08:22:06.436Z,14.93
2017-11-06T08:24:34.836Z,13.87
2017-11-06T08:27:03.219Z,14.27
2017-11-06T08:29:31.637Z,14.50
2017-11-06T08:32:00.011Z,13.00
2017-11-06T08:34:29.153Z,15.43
2017-11-06T08:36:57.531Z,11.73
2017-11-06T08:39:25.902Z,15.17
2017-11-06T08:41:54.284Z,11.37
2017-11-06T08:44:22.662Z,13.53
2017-11-06T08:46:51.042Z,13.47
2017-11-06T08:49:19.453Z,14.17
2017-11-06T08:51:47.862Z,15.63
2017-11-06T08:54:17.041Z,11.70
2017-11-06T08:56:45.432Z,17.00
2017-11-06T08:59:14.576Z,15.83
2017-11-06T09:01:42.983Z,12.50
2017-11-06T09:04:11.481Z,14.50
2017-11-06T09:06:40.631Z,15.60
2017-11-06T09:09:09.014Z,12.93
2017-11-06T09:11:37.391Z,10.80
2017-11-06T09:14:05.807Z,13.13
2017-11-06T09:16:34.960Z,14.37
2017-11-06T09:19:03.334Z,15.43
2017-11-06T09:21:31.738Z,12.80
2017-11-06T09:24:00.134Z,14.00
2017-11-06T09:26:28.538Z,12.20
2017-11-06T09:28:57.008Z,10.20
2017-11-06T09:31:25.406Z,14.83
2017-11-06T09:33:54.548Z,12.20
2017-11-06T09:36:22.929Z,14.73
2017-11-06T09:38:51.311Z,12.23
2017-11-06T09:41:19.692Z,13.37
2017-11-06T09:43:48.139Z,10.40
2017-11-06T09:46:16.510Z,12.17
2017-11-06T09:48:45.652Z,12.83
2017-11-06T09:51:14.028Z,14.37
2017-11-06T09:53:42.399Z,10.83
2017-11-06T09:56:10.773Z,10.57
2017-11-06T09:58:39.171Z,10.77
2017-11-06T10:01:07.543Z,11.53
2017-11-06T10:03:35.916Z,12.20
2017-11-06T10:06:04.285Z,12.70
2017-11-06T10:08:32.666Z,12.27
2017-11-06T10:11:01.050Z,13.80
2017-11-06T10:13:29.437Z,11.97
2017-11-06T10:15:57.815Z,14.67
2017-11-06T10:18:26.188Z,13.43
2017-11-06T10:20:54.559Z,13.37
2017-11-06T10:23:22.930Z,13.20
2017-11-06T10:25:51.302Z,11.17
2017-11-06T10:28:19.684Z,13.07
2017-11-06T10:30:48.059Z,9.47
2017-11-06T10:33:16.434Z,12.07
2017-11-06T10:35:44.805Z,11.30
2017-11-06T10:38:13.946Z,12.73
2017-11-06T10:40:42.318Z,10.53
2017-11-06T10:43:10.705Z,12.05
2017-11-06T10:45:39.082Z,10.20
2017-11-06T10:48:07.459Z,13.93
2017-11-06T10:50:35.839Z,16.07
2017-11-06T10:53:04.211Z,11.53
2017-11-06T10:55:32.580Z,10.30
2017-11-06T10:58:00.945Z,10.50
2017-11-06T11:00:29.355Z,12.13
2017-11-06T11:02:57.753Z,13.47
2017-11-06T11:05:26.137Z,13.60
2017-11-06T11:07:54.516Z,12.43
2017-11-06T11:10:22.902Z,10.60
2017-11-06T11:12:52.047Z,12.97
2017-11-06T11:15:20.414Z,10.03
2017-11-06T11:17:49.628Z,11.17
2017-11-06T11:20:18.003Z,11.10
2017-11-06T11:22:46.381Z,11.43
2017-11-06T11:25:14.973Z,12.07
2017-11-06T11:27:43.350Z,12.17
2017-11-06T11:30:11.723Z,9.43
2017-11-06T11:32:40.093Z,12.23
2017-11-06T11:35:09.230Z,11.43
2017-11-06T11:37:37.611Z,13.37
2017-11-06T11:40:05.985Z,13.17
2017-11-06T11:42:34.361Z,13.23
2017-11-06T11:45:02.730Z,14.90
2017-11-06T11:47:31.112Z,14.70
2017-11-06T11:49:59.514Z,14.43
2017-11-06T11:52:27.888Z,9.33
2017-11-06T11:54:56.265Z,13.37
2017-11-06T11:57:24.636Z,15.50
2017-11-06T11:59:53.011Z,13.03
2017-11-06T12:02:21.386Z,12.47
2017-11-06T12:04:49.757Z,11.70
2017-11-06T12:07:18.131Z,14.30
2017-11-06T12:09:46.508Z,15.10
2017-11-06T12:12:14.880Z,11.20
2017-11-06T12:14:43.261Z,11.77
2017-11-06T12:17:11.640Z,11.90
2017-11-06T12:19:40.012Z,12.67
2017-11-06T12:22:09.155Z,15.87
2017-11-06T12:24:37.530Z,13.03
2017-11-06T12:27:05.899Z,13.70
2017-11-06T12:29:34.274Z,13.70
2017-11-06T12:32:02.703Z,11.20
2017-11-06T12:34:31.079Z,10.53
2017-11-06T12:36:59.447Z,9.23
2017-11-06T12:39:27.819Z,14.57
2017-11-06T12:41:56.198Z,13.37
2017-11-06T12:44:24.563Z,8.63
2017-11-06T12:46:52.935Z,8.53
2017-11-06T12:49:21.313Z,11.97
2017-11-06T12:51:49.695Z,11.60
2017-11-06T12:54:18.066Z,8.87
2017-11-06T12:56:46.466Z,9.13
2017-11-06T12:59:14.844Z,13.43
2017-11-06T13:01:43.220Z,7.97
2017-11-06T13:04:11.604Z,12.70
2017-11-06T13:06:39.979Z,10.30
2017-11-06T13:09:08.346Z,8.30
2017-11-06T13:11:36.712Z,7.30
2017-11-06T13:14:05.189Z,8.93
2017-11-06T13:16:33.560Z,8.87
2017-11-06T13:19:01.924Z,8.17
2017-11-06T13:21:31.079Z,11.27
2017-11-06T13:23:59.458Z,12.40
2017-11-06T13:26:27.834Z,14.30
2017-11-06T13:28:56.211Z,9.97
2017-11-06T13:31:24.588Z,8.50
2017-11-06T13:33:52.961Z,8.07
2017-11-06T13:36:21.338Z,6.50
2017-11-06T13:38:49.698Z,7.43
2017-11-06T13:41:18.067Z,6.97
2017-11-06T13:43:47.213Z,9.33
2017-11-06T13:46:15.587Z,9.97
2017-11-06T13:48:43.949Z,8.53
2017-11-06T13:51:12.314Z,9.50
2017-11-06T13:53:40.682Z,10.23
2017-11-06T13:56:09.050Z,7.33
2017-11-06T13:58:38.183Z,8.97
2017-11-06T14:01:06.570Z,11.63
2017-11-06T14:03:34.948Z,11.20
2017-11-06T14:06:03.324Z,7.93
2017-11-06T14:08:31.687Z,10.77
2017-11-06T14:11:00.064Z,9.20
2017-11-06T14:13:28.435Z,7.80
2017-11-06T14:15:56.800Z,7.60
2017-11-06T14:18:25.934Z,8.33
2017-11-06T14:20:54.305Z,10.90
2017-11-06T14:23:22.680Z,10.37
2017-11-06T14:25:51.057Z,8.43
2017-11-06T14:28:19.431Z,3.87
2017-11-06T14:30:47.796Z,4.40
2017-11-06T14:33:16.944Z,4.43
2017-11-06T14:35:45.329Z,7.43
2017-11-06T14:38:13.734Z,5.67
2017-11-06T14:40:42.901Z,4.67
2017-11-06T14:43:11.278Z,7.93
2017-11-06T14:45:39.650Z,4.37
2017-11-06T14:48:08.022Z,8.23
2017-11-06T14:50:36.388Z,4.83
2017-11-06T14:53:04.756Z,5.50
2017-11-06T14:55:33.123Z,4.73
2017-11-06T14:58:02.254Z,4.83
2017-11-06T15:00:30.619Z,5.20
2017-11-06T15:02:59.094Z,4.43
2017-11-06T15:05:27.469Z,5.63
2017-11-06T15:07:55.838Z,4.30
2017-11-06T15:10:24.974Z,7.63
2017-11-06T15:12:53.335Z,4.23
2017-11-06T15:15:21.705Z,4.77
2017-11-06T15:17:50.081Z,4.63
2017-11-06T15:20:19.217Z,6.87
2017-11-06T15:22:47.582Z,6.23
2017-11-06T15:25:15.934Z,6.97
2017-11-06T15:27:44.309Z,5.97
2017-11-06T15:30:13.451Z,7.67
2017-11-06T15:32:41.822Z,9.63
2017-11-06T15:35:10.192Z,8.40
2017-11-06T15:37:38.560Z,7.33
2017-11-06T15:40:06.931Z,7.43
2017-11-06T15:42:35.303Z,7.00
2017-11-06T15:45:04.444Z,8.67
2017-11-06T15:47:32.825Z,8.20
2017-11-06T15:50:01.201Z,11.83
2017-11-06T15:52:29.571Z,6.60
2017-11-06T15:54:57.942Z,5.90
2017-11-06T15:57:26.317Z,8.80
2017-11-06T15:59:54.682Z,9.53
2017-11-06T16:02:23.059Z,14.10
2017-11-06T16:04:51.432Z,7.47
2017-11-06T16:07:20.582Z,10.97
2017-11-06T16:09:48.985Z,8.13
2017-11-06T16:12:17.350Z,10.07
2017-11-06T16:14:45.722Z,13.77
2017-11-06T16:17:14.107Z,11.67
2017-11-06T16:19:42.482Z,13.23
2017-11-06T16:22:10.856Z,10.47
2017-11-06T16:24:39.226Z,10.27
2017-11-06T16:27:07.603Z,11.20
2017-11-06T16:29:35.986Z,13.03
2017-11-06T16:32:04.371Z,7.97
2017-11-06T16:34:32.750Z,10.07
2017-11-06T16:37:01.213Z,13.47
2017-11-06T16:39:29.592Z,10.73
2017-11-06T16:41:58.019Z,11.90
2017-11-06T16:44:27.165Z,10.67
2017-11-06T16:46:55.544Z,14.07
2017-11-06T16:49:23.908Z,9.40
2017-11-06T16:51:52.279Z,9.63
2017-11-06T16:54:21.422Z,10.97
2017-11-06T16:56:49.802Z,11.97
2017-11-06T16:59:18.179Z,14.87
2017-11-06T17:01:46.555Z,14.30
2017-11-06T17:04:14.922Z,9.53
2017-11-06T17:06:43.286Z,10.27
2017-11-06T17:09:11.670Z,11.57
2017-11-06T17:11:40.052Z,14.60
2017-11-06T17:14:08.526Z,10.87
2017-11-06T17:16:36.920Z,11.07
2017-11-06T17:19:05.284Z,13.47
2017-11-06T17:21:33.658Z,11.97
2017-11-06T17:24:02.039Z,14.00
2017-11-06T17:26:30.416Z,13.70
2017-11-06T17:28:58.788Z,12.33
2017-11-06T17:31:27.932Z,16.43
2017-11-06T17:33:56.301Z,11.97
2017-11-06T17:36:24.664Z,15.30
2017-11-06T17:38:53.064Z,14.00
2017-11-06T17:41:21.430Z,12.83
2017-11-06T17:43:49.795Z,18.27
2017-11-06T17:46:18.169Z,16.23
2017-11-06T17:48:46.551Z,12.80
2017-11-06T17:51:14.941Z,17.60
2017-11-06T17:53:43.311Z,16.10
2017-11-06T17:56:11.689Z,19.67
2017-11-06T17:58:40.068Z,14.53
2017-11-06T18:01:08.447Z,19.90
2017-11-06T18:03:36.823Z,16.23
2017-11-06T18:06:05.195Z,12.90
2017-11-06T18:08:33.558Z,16.60
2017-11-06T18:11:02.692Z,16.00
2017-11-06T18:13:31.063Z,16.40
2017-11-06T18:15:59.440Z,20.33
2017-11-06T18:18:27.815Z,17.53
2017-11-06T18:20:56.188Z,14.83
2017-11-06T18:23:24.559Z,16.70
2017-11-06T18:25:53.712Z,14.47
2017-11-06T18:28:22.086Z,17.77
2017-11-06T18:30:50.465Z,20.77
2017-11-06T18:33:18.842Z,20.37
2017-11-06T18:35:47.223Z,17.97
2017-11-06T18:38:15.599Z,16.20
2017-11-06T18:40:43.980Z,18.10
2017-11-06T18:43:12.360Z,19.17
2017-11-06T18:45:40.724Z,19.53
2017-11-06T18:48:09.106Z,22.17
2017-11-06T18:50:37.483Z,20.97
2017-11-06T18:53:05.863Z,19.53
2017-11-06T18:55:34.240Z,23.00
2017-11-06T18:58:02.620Z,28.27
2017-11-06T19:00:30.994Z,22.53
2017-11-06T19:02:59.373Z,21.23
2017-11-06T19:05:27.739Z,22.33
2017-11-06T19:07:56.110Z,27.83
2017-11-06T19:10:24.487Z,30.97
2017-11-06T19:12:53.635Z,24.77
2017-11-06T19:15:22.010Z,26.53
2017-11-06T19:17:50.392Z,26.57
2017-11-06T19:20:18.769Z,23.77
2017-11-06T19:22:47.155Z,26.53
2017-11-06T19:25:15.531Z,25.53
2017-11-06T19:27:43.909Z,30.73
2017-11-06T19:30:12.276Z,26.63
2017-11-06T19:32:40.648Z,31.93
2017-11-06T19:35:09.028Z,28.53
2017-11-06T19:37:37.403Z,27.33
2017-11-06T19:40:05.805Z,29.73
2017-11-06T19:42:34.185Z,30.20
2017-11-06T19:45:02.559Z,29.77
2017-11-06T19:47:30.927Z,30.97
2017-11-06T19:49:59.318Z,29.40
2017-11-06T19:52:27.695Z,31.90
2017-11-06T19:54:56.082Z,30.43
2017-11-06T19:57:24.463Z,33.90
2017-11-06T19:59:52.841Z,39.20
2017-11-06T20:02:21.220Z,35.27
2017-11-06T20:04:49.595Z,36.70
2017-11-06T20:07:17.976Z,34.50
2017-11-06T20:09:46.355Z,31.83
2017-11-06T20:12:14.736Z,40.40
2017-11-06T20:14:43.114Z,42.17
2017-11-06T20:17:11.493Z,38.13
2017-11-06T20:19:39.939Z,37.53
2017-11-06T20:22:08.317Z,37.13
2017-11-06T20:24:36.688Z,36.03
2017-11-06T20:27:05.060Z,35.40
2017-11-06T20:29:34.199Z,39.00
2017-11-06T20:32:02.567Z,39.77
2017-11-06T20:34:30.946Z,36.63
2017-11-06T20:36:59.334Z,37.83
2017-11-06T20:39:27.721Z,38.37
2017-11-06T20:41:56.087Z,40.57
2017-11-06T20:44:24.451Z,39.23
2017-11-06T20:46:52.814Z,42.67
2017-11-06T20:49:21.947Z,46.87
2017-11-06T20:51:50.318Z,38.87
2017-11-06T20:54:18.681Z,38.90
2017-11-06T20:56:47.048Z,43.57
2017-11-06T20:59:15.426Z,49.90
2017-11-06T21:01:44.564Z,46.53
2017-11-06T21:04:12.963Z,48.07
2017-11-06T21:06:41.334Z,43.83
2017-11-06T21:09:09.708Z,48.90
2017-11-06T21:11:38.080Z,45.00
2017-11-06T21:14:06.871Z,43.43
2017-11-06T21:16:35.263Z,47.17
2017-11-06T21:19:03.631Z,55.40
2017-11-06T21:21:31.999Z,46.07
2017-11-06T21:24:00.359Z,49.73
2017-11-06T21:26:28.730Z,47.80
2017-11-06T21:28:57.107Z,49.20
2017-11-06T21:31:25.461Z,47.10
2017-11-06T21:33:53.830Z,51.47
2017-11-06T21:36:22.190Z,43.90
2017-11-06T21:38:51.315Z,45.17
2017-11-06T21:41:20.445Z,44.77
2017-11-06T21:43:49.571Z,42.17
2017-11-06T21:46:17.946Z,46.00
2017-11-06T21:48:46.340Z,47.37
2017-11-06T21:51:14.717Z,46.23
2017-11-06T21:53:43.086Z,39.83
2017-11-06T21:56:11.479Z,42.67
2017-11-06T21:58:39.850Z,45.03
2017-11-06T22:01:08.216Z,40.93
2017-11-06T22:03:36.585Z,42.20
2017-11-06T22:06:04.951Z,55.03
2017-11-06T22:08:33.323Z,42.33
2017-11-06T22:11:02.464Z,40.60
2017-11-06T22:13:30.832Z,43.40
2017-11-06T22:15:59.204Z,38.43
2017-11-06T22:18:27.579Z,39.10
2017-11-06T22:20:55.942Z,37.93
2017-11-06T22:23:25.235Z,35.97
2017-11-06T22:25:54.375Z,38.00
2017-11-06T22:28:22.750Z,45.27
2017-11-06T22:30:51.124Z,40.17
2017-11-06T22:33:19.499Z,36.43
2017-11-06T22:35:47.890Z,46.70
2017-11-06T22:38:16.278Z,36.03
2017-11-06T22:40:44.659Z,35.73
2017-11-06T22:43:13.035Z,39.57
2017-11-06T22:45:41.427Z,42.33
2017-11-06T22:48:09.794Z,34.30
2017-11-06T22:50:38.175Z,37.73
2017-11-06T22:53:06.561Z,40.67
2017-11-06T22:55:34.933Z,37.63
2017-11-06T22:58:03.311Z,45.93
2017-11-06T23:00:31.698Z,35.07
2017-11-06T23:03:00.062Z,43.53
2017-11-06T23:05:28.430Z,39.93
2017-11-06T23:07:56.838Z,39.30
2017-11-06T23:10:25.207Z,42.87
2017-11-06T23:12:53.577Z,39.70
2017-11-06T23:15:21.951Z,49.53
2017-11-06T23:17:50.322Z,40.07
2017-11-06T23:20:18.711Z,87.57
2017-11-06T23:22:47.090Z,54.83
2017-11-06T23:25:15.466Z,39.70
2017-11-06T23:27:43.842Z,43.13
2017-11-06T23:30:12.216Z,39.73
2017-11-06T23:32:41.670Z,40.63
2017-11-06T23:35:10.045Z,40.57
2017-11-06T23:37:38.414Z,47.20
2017-11-06T23:40:06.782Z,34.20
2017-11-06T23:42:35.151Z,38.30
2017-11-06T23:45:03.524Z,57.10
2017-11-06T23:47:31.895Z,37.27
2017-11-06T23:50:00.268Z,45.13
2017-11-06T23:52:28.654Z,47.00
2017-11-06T23:54:57.032Z,96.37
2017-11-06T23:57:25.395Z,51.17
2017-11-06T23:59:53.766Z,89.33
